createdAt,value
2018-12-15T00:00:01.928Z,95975.94
2018-12-15T00:02:31.813Z,95983.68
2018-12-15T00:05:01.794Z,95982.80
2018-12-15T00:07:31.689Z,95985.41
2018-12-15T00:10:01.534Z,95984.97
2018-12-15T00:12:31.496Z,95982.78
2018-12-15T00:15:01.366Z,95983.06
2018-12-15T00:17:31.957Z,95985.73
2018-12-15T00:20:01.878Z,95986.64
2018-12-15T00:22:31.816Z,95989.84
2018-12-15T00:25:01.780Z,95992.34
2018-12-15T00:27:31.698Z,95981.92
2018-12-15T00:30:01.708Z,95987.48
2018-12-15T00:32:31.675Z,95989.27
2018-12-15T00:35:01.774Z,95994.08
2018-12-15T00:37:31.694Z,95999.14
2018-12-15T00:40:01.575Z,95993.50
2018-12-15T00:42:32.260Z,95998.63
2018-12-15T00:45:02.381Z,95994.06
2018-12-15T00:47:32.272Z,95992.91
2018-12-15T00:50:02.242Z,95989.96
2018-12-15T00:52:32.157Z,95988.25
2018-12-15T00:55:01.979Z,95996.75
2018-12-15T00:57:31.926Z,95996.00
2018-12-15T01:00:01.767Z,95998.17
2018-12-15T01:02:31.649Z,95987.09
2018-12-15T01:05:01.528Z,95993.05
2018-12-15T01:07:31.523Z,96001.17
2018-12-15T01:10:01.411Z,96003.93
2018-12-15T01:12:31.282Z,96009.06
2018-12-15T01:15:01.225Z,96010.91
2018-12-15T01:17:32.018Z,96006.63
2018-12-15T01:20:01.881Z,96018.72
2018-12-15T01:22:31.737Z,96021.09
2018-12-15T01:25:01.699Z,96023.30
2018-12-15T01:27:31.767Z,96024.30
2018-12-15T01:30:01.881Z,96029.03
2018-12-15T01:32:31.888Z,96023.03
2018-12-15T01:35:01.875Z,96032.11
2018-12-15T01:37:31.732Z,96029.11
2018-12-15T01:40:01.564Z,96031.98
2018-12-15T01:42:31.460Z,96037.55
2018-12-15T01:45:02.312Z,96036.73
2018-12-15T01:47:32.184Z,96037.88
2018-12-15T01:50:02.104Z,96036.27
2018-12-15T01:52:32.028Z,96034.03
2018-12-15T01:55:01.964Z,96029.09
2018-12-15T01:57:31.861Z,96028.59
2018-12-15T02:00:01.701Z,96029.56
2018-12-15T02:02:32.192Z,96026.47
2018-12-15T02:05:02.079Z,96031.47
2018-12-15T02:07:32.068Z,96036.35
2018-12-15T02:10:01.937Z,96037.25
2018-12-15T02:12:32.285Z,96025.27
2018-12-15T02:15:02.129Z,96037.83
2018-12-15T02:17:33.773Z,96035.25
2018-12-15T02:20:05.109Z,96036.20
2018-12-15T02:22:35.041Z,96037.93
2018-12-15T02:25:05.229Z,96045.30
2018-12-15T02:27:35.143Z,96050.94
2018-12-15T02:30:05.669Z,96048.71
2018-12-15T02:32:35.584Z,96050.88
2018-12-15T02:35:05.770Z,96048.38
2018-12-15T02:37:36.647Z,96047.67
2018-12-15T02:40:07.477Z,96050.31
2018-12-15T02:42:37.338Z,96045.23
2018-12-15T02:45:07.418Z,96046.27
2018-12-15T02:47:41.375Z,96056.52
2018-12-15T02:50:09.264Z,96049.15
2018-12-15T02:52:39.162Z,96044.02
2018-12-15T02:55:09.220Z,96051.58
2018-12-15T02:57:39.091Z,96048.25
2018-12-15T03:00:09.108Z,96054.23
2018-12-15T03:02:38.921Z,96053.77
2018-12-15T03:05:09.101Z,96054.98
2018-12-15T03:07:38.931Z,96051.97
2018-12-15T03:10:10.198Z,96047.24
2018-12-15T03:12:40.113Z,96051.98
2018-12-15T03:15:10.698Z,96051.09
2018-12-15T03:17:40.663Z,96054.59
2018-12-15T03:20:10.534Z,96056.39
2018-12-15T03:22:40.389Z,96060.36
2018-12-15T03:25:10.277Z,96058.77
2018-12-15T03:27:40.111Z,96061.31
2018-12-15T03:30:10.092Z,96066.89
2018-12-15T03:32:39.952Z,96063.11
2018-12-15T03:35:09.826Z,96065.55
2018-12-15T03:37:39.780Z,96060.80
2018-12-15T03:40:09.690Z,96055.88
2018-12-15T03:42:39.547Z,96064.98
2018-12-15T03:45:09.484Z,96063.81
2018-12-15T03:47:39.479Z,96064.06
2018-12-15T03:50:09.425Z,96065.80
2018-12-15T03:52:39.277Z,96066.51
2018-12-15T03:55:09.114Z,96067.70
2018-12-15T03:57:38.962Z,96069.19
2018-12-15T04:00:09.139Z,96067.94
2018-12-15T04:02:38.974Z,96069.44
2018-12-15T04:05:08.941Z,96072.25
2018-12-15T04:07:38.965Z,96066.06
2018-12-15T04:10:09.004Z,96063.63
2018-12-15T04:12:38.957Z,96069.25
2018-12-15T04:15:09.039Z,96067.98
2018-12-15T04:17:38.890Z,96069.34
2018-12-15T04:20:08.805Z,96070.47
2018-12-15T04:22:38.721Z,96075.59
2018-12-15T04:25:08.529Z,96070.21
2018-12-15T04:27:38.566Z,96071.89
2018-12-15T04:30:09.810Z,96082.91
2018-12-15T04:32:45.080Z,96085.01
2018-12-15T04:35:11.543Z,96083.47
2018-12-15T04:37:41.436Z,96081.73
2018-12-15T04:40:11.588Z,96082.98
2018-12-15T04:42:41.472Z,96080.25
2018-12-15T04:45:11.322Z,96085.09
2018-12-15T04:47:41.280Z,96082.69
2018-12-15T04:50:11.128Z,96084.56
2018-12-15T04:52:41.112Z,96087.19
2018-12-15T04:55:11.089Z,96086.53
2018-12-15T04:57:40.979Z,96091.36
2018-12-15T05:00:11.123Z,96091.73
2018-12-15T05:02:44.006Z,96097.40
2018-12-15T05:05:13.079Z,96105.73
2018-12-15T05:07:43.175Z,96107.08
2018-12-15T05:10:13.194Z,96110.12
2018-12-15T05:12:43.069Z,96108.22
2018-12-15T05:15:12.944Z,96111.40
2018-12-15T05:17:42.777Z,96108.31
2018-12-15T05:20:13.121Z,96103.95
2018-12-15T05:22:43.066Z,96105.15
2018-12-15T05:25:13.017Z,96113.94
2018-12-15T05:27:42.845Z,96112.00
2018-12-15T05:30:13.117Z,96110.47
2018-12-15T05:32:44.000Z,96115.53
2018-12-15T05:35:13.890Z,96113.18
2018-12-15T05:37:43.978Z,96111.47
2018-12-15T05:40:13.989Z,96113.34
2018-12-15T05:42:43.934Z,96123.81
2018-12-15T05:45:13.968Z,96111.30
2018-12-15T05:47:43.961Z,96122.39
2018-12-15T05:50:13.868Z,96118.84
2018-12-15T05:52:43.779Z,96121.39
2018-12-15T05:55:13.687Z,96123.58
2018-12-15T05:57:43.600Z,96120.41
2018-12-15T06:00:13.681Z,96126.98
2018-12-15T06:02:43.740Z,96124.23
2018-12-15T06:05:13.789Z,96123.66
2018-12-15T06:07:43.850Z,96124.39
2018-12-15T06:10:13.717Z,96126.88
2018-12-15T06:12:43.541Z,96130.52
2018-12-15T06:15:13.722Z,96125.09
2018-12-15T06:17:43.546Z,96135.16
2018-12-15T06:20:13.424Z,96137.88
2018-12-15T06:22:43.400Z,96136.30
2018-12-15T06:25:13.749Z,96143.09
2018-12-15T06:27:43.902Z,96139.31
2018-12-15T06:30:13.773Z,96141.48
2018-12-15T06:32:43.760Z,96141.94
2018-12-15T06:35:13.638Z,96132.38
2018-12-15T06:37:43.493Z,96141.28
2018-12-15T06:40:13.877Z,96140.43
2018-12-15T06:42:43.749Z,96135.41
2018-12-15T06:45:14.670Z,96137.11
2018-12-15T06:47:44.495Z,96141.88
2018-12-15T06:50:14.427Z,96138.03
2018-12-15T06:52:44.341Z,96134.50
2018-12-15T06:55:14.185Z,96136.98
2018-12-15T06:57:44.072Z,96140.12
2018-12-15T07:00:14.089Z,96142.84
2018-12-15T07:02:44.008Z,96142.17
2018-12-15T07:05:13.881Z,96147.06
2018-12-15T07:07:43.822Z,96148.89
2018-12-15T07:10:13.770Z,96146.56
2018-12-15T07:12:43.645Z,96147.23
2018-12-15T07:15:13.732Z,96144.11
2018-12-15T07:17:43.790Z,96141.41
2018-12-15T07:20:13.963Z,96153.20
2018-12-15T07:22:43.810Z,96143.68
2018-12-15T07:25:13.705Z,96159.30
2018-12-15T07:27:43.662Z,96161.73
2018-12-15T07:30:13.524Z,96161.72
2018-12-15T07:32:43.411Z,96158.99
2018-12-15T07:35:13.264Z,96162.45
2018-12-15T07:37:43.196Z,96157.47
2018-12-15T07:40:13.388Z,96156.02
2018-12-15T07:42:43.274Z,96163.23
2018-12-15T07:45:13.216Z,96164.28
2018-12-15T07:47:43.092Z,96162.92
2018-12-15T07:50:12.936Z,96163.50
2018-12-15T07:52:42.894Z,96167.29
2018-12-15T07:55:12.739Z,96166.37
2018-12-15T07:57:42.619Z,96166.16
2018-12-15T08:00:12.753Z,96169.62
2018-12-15T08:02:42.633Z,96171.82
2018-12-15T08:05:12.743Z,96173.16
2018-12-15T08:07:42.913Z,96180.25
2018-12-15T08:13:09.162Z,96170.84
2018-12-15T08:15:39.105Z,96177.30
2018-12-15T08:18:09.085Z,96175.66
2018-12-15T08:20:39.064Z,96177.52
2018-12-15T08:23:08.913Z,96178.06
2018-12-15T08:25:38.925Z,96182.42
2018-12-15T08:28:08.862Z,96182.09
2018-12-15T08:30:38.805Z,96183.45
2018-12-15T08:33:08.686Z,96182.25
2018-12-15T08:35:38.543Z,96189.80
2018-12-15T08:38:08.350Z,96182.16
2018-12-15T08:40:38.483Z,96185.27
2018-12-15T08:43:08.312Z,96186.69
2018-12-15T08:45:38.317Z,96183.36
2018-12-15T08:48:08.201Z,96187.20
2018-12-15T08:50:38.351Z,96178.61
2018-12-15T08:53:08.173Z,96182.91
2018-12-15T08:55:38.045Z,96178.98
2018-12-15T08:58:07.964Z,96179.95
2018-12-15T09:00:38.028Z,96181.17
2018-12-15T09:03:08.016Z,96175.28
2018-12-15T09:05:37.972Z,96182.08
2018-12-15T09:08:07.808Z,96175.27
2018-12-15T09:10:37.822Z,96176.86
2018-12-15T09:13:07.962Z,96174.55
2018-12-15T09:15:37.838Z,96171.78
2018-12-15T09:18:07.698Z,96174.29
2018-12-15T09:20:37.571Z,96175.87
2018-12-15T09:23:07.401Z,96180.98
2018-12-15T09:25:37.316Z,96176.38
2018-12-15T09:28:07.206Z,96178.58
2018-12-15T09:30:37.277Z,96177.90
2018-12-15T09:33:07.256Z,96176.62
2018-12-15T09:35:37.210Z,96179.62
2018-12-15T09:38:07.222Z,96179.27
2018-12-15T09:40:37.160Z,96176.00
2018-12-15T09:43:07.948Z,96173.31
2018-12-15T09:45:37.917Z,96169.68
2018-12-15T09:48:07.771Z,96172.48
2018-12-15T09:50:37.772Z,96170.06
2018-12-15T09:53:07.718Z,96162.82
2018-12-15T09:55:37.650Z,96163.09
2018-12-15T09:58:07.632Z,96163.84
2018-12-15T10:00:37.519Z,96162.92
2018-12-15T10:03:07.983Z,96161.39
2018-12-15T10:05:38.062Z,96157.23
2018-12-15T10:08:07.923Z,96154.80
2018-12-15T10:10:37.985Z,96157.77
2018-12-15T10:13:08.484Z,96147.63
2018-12-15T10:15:39.163Z,96142.77
2018-12-15T10:18:09.224Z,96147.89
2018-12-15T10:20:39.172Z,96146.32
2018-12-15T10:23:09.403Z,96140.14
2018-12-15T10:25:40.124Z,96136.75
2018-12-15T10:28:10.303Z,96137.71
2018-12-15T10:30:45.535Z,96127.52
2018-12-15T10:33:15.517Z,96128.73
2018-12-15T10:35:45.524Z,96128.94
2018-12-15T10:38:15.537Z,96122.66
2018-12-15T10:40:45.640Z,96123.09
2018-12-15T10:43:15.571Z,96115.72
2018-12-15T10:45:45.536Z,96112.52
2018-12-15T10:48:15.606Z,96113.28
2018-12-15T10:50:46.836Z,96111.62
2018-12-15T10:53:17.679Z,96113.23
2018-12-15T10:55:47.548Z,96108.36
2018-12-15T10:58:17.499Z,96110.34
2018-12-15T11:00:52.774Z,96115.23
2018-12-15T11:03:22.677Z,96105.79
2018-12-15T11:05:52.794Z,96104.15
2018-12-15T11:08:22.713Z,96110.06
2018-12-15T11:10:52.672Z,96105.46
2018-12-15T11:13:22.634Z,96105.09
2018-12-15T11:15:52.509Z,96101.88
2018-12-15T11:18:22.412Z,96101.06
2018-12-15T11:20:52.331Z,96098.30
2018-12-15T11:23:22.195Z,96099.14
2018-12-15T11:25:52.033Z,96094.72
2018-12-15T11:28:22.007Z,96096.44
2018-12-15T11:30:51.859Z,96084.13
2018-12-15T11:33:22.026Z,96088.30
2018-12-15T11:35:51.910Z,96088.67
2018-12-15T11:38:21.895Z,96091.70
2018-12-15T11:40:51.765Z,96096.23
2018-12-15T11:43:21.681Z,96084.59
2018-12-15T11:45:51.696Z,96092.84
2018-12-15T11:48:21.734Z,96084.72
2018-12-15T11:50:52.097Z,96085.73
2018-12-15T11:53:22.012Z,96087.25
2018-12-15T11:55:52.040Z,96083.75
2018-12-15T11:58:22.164Z,96076.95
2018-12-15T12:00:52.281Z,96074.54
2018-12-15T12:03:22.167Z,96071.59
2018-12-15T12:05:52.152Z,96066.06
2018-12-15T12:08:22.081Z,96067.09
2018-12-15T12:10:52.004Z,96067.55
2018-12-15T12:13:21.900Z,96062.09
2018-12-15T12:15:51.851Z,96056.18
2018-12-15T12:18:21.719Z,96060.04
2018-12-15T12:20:51.585Z,96053.68
2018-12-15T12:23:21.485Z,96048.22
2018-12-15T12:25:51.369Z,96051.64
2018-12-15T12:28:21.297Z,96050.76
2018-12-15T12:30:51.223Z,96049.53
2018-12-15T12:33:21.293Z,96052.61
2018-12-15T12:35:51.235Z,96044.16
2018-12-15T12:38:21.287Z,96049.47
2018-12-15T12:40:51.181Z,96050.70
2018-12-15T12:43:21.086Z,96042.73
2018-12-15T12:45:51.012Z,96050.36
2018-12-15T12:48:20.858Z,96047.73
2018-12-15T12:50:50.728Z,96050.06
2018-12-15T12:53:21.359Z,96048.19
2018-12-15T12:55:51.472Z,96048.97
2018-12-15T12:58:21.403Z,96047.55
2018-12-15T13:00:51.498Z,96048.95
2018-12-15T13:03:21.471Z,96043.27
2018-12-15T13:05:52.246Z,96046.08
2018-12-15T13:08:23.122Z,96049.72
2018-12-15T13:10:52.990Z,96045.17
2018-12-15T13:13:22.949Z,96046.39
2018-12-15T13:15:52.892Z,96048.25
2018-12-15T13:18:22.775Z,96043.64
2018-12-15T13:20:52.608Z,96045.42
2018-12-15T13:23:22.730Z,96041.39
2018-12-15T13:25:52.826Z,96043.23
2018-12-15T13:28:22.845Z,96050.48
2018-12-15T13:30:52.857Z,96051.83
2018-12-15T13:33:32.632Z,96051.11
2018-12-15T13:36:02.629Z,96052.17
2018-12-15T13:38:32.646Z,96051.83
2018-12-15T13:41:02.562Z,96060.69
2018-12-15T13:43:32.451Z,96052.28
2018-12-15T13:46:02.310Z,96051.72
2018-12-15T13:48:32.298Z,96052.28
2018-12-15T13:51:02.218Z,96052.66
2018-12-15T13:53:32.053Z,96062.03
2018-12-15T13:56:01.912Z,96063.37
2018-12-15T13:58:31.778Z,96066.90
2018-12-15T14:01:01.708Z,96063.58
2018-12-15T14:03:31.616Z,96059.72
2018-12-15T14:06:02.776Z,96061.06
2018-12-15T14:08:32.771Z,96064.33
2018-12-15T14:11:02.811Z,96068.56
2018-12-15T14:13:34.142Z,96069.03
2018-12-15T14:16:04.905Z,96063.50
2018-12-15T14:18:34.872Z,96064.33
2018-12-15T14:21:04.755Z,96069.73
2018-12-15T14:23:34.655Z,96056.97
2018-12-15T14:26:05.279Z,96058.27
2018-12-15T14:28:35.236Z,96058.82
2018-12-15T14:31:05.580Z,96061.06
2018-12-15T14:33:35.732Z,96065.88
2018-12-15T14:36:05.677Z,96065.44
2018-12-15T14:38:35.544Z,96057.42
2018-12-15T14:41:05.460Z,96053.50
2018-12-15T14:43:35.422Z,96060.81
2018-12-15T14:46:05.888Z,96050.17
2018-12-15T14:48:36.024Z,96045.11
2018-12-15T14:51:05.932Z,96047.29
2018-12-15T14:53:35.830Z,96056.21
2018-12-15T14:56:05.855Z,96058.00
2018-12-15T14:58:35.830Z,96056.85
2018-12-15T15:01:05.878Z,96052.93
2018-12-15T15:03:35.900Z,96052.75
2018-12-15T15:06:06.331Z,96057.49
2018-12-15T15:08:36.288Z,96055.70
2018-12-15T15:11:06.160Z,96060.05
2018-12-15T15:13:36.028Z,96049.02
2018-12-15T15:16:05.882Z,96060.30
2018-12-15T15:18:35.948Z,96064.00
2018-12-15T15:21:06.028Z,96061.66
2018-12-15T15:23:35.956Z,96060.69
2018-12-15T15:26:05.949Z,96058.70
2018-12-15T15:28:35.802Z,96058.45
2018-12-15T15:31:05.820Z,96057.28
2018-12-15T15:33:36.228Z,96055.23
2018-12-15T15:36:06.696Z,96055.51
2018-12-15T15:38:36.613Z,96048.33
2018-12-15T15:41:06.706Z,96061.59
2018-12-15T15:43:36.667Z,96055.75
2018-12-15T15:46:06.592Z,96057.55
2018-12-15T15:48:36.936Z,96056.45
2018-12-15T15:51:06.788Z,96052.61
2018-12-15T15:53:36.674Z,96050.89
2018-12-15T15:56:06.556Z,96056.45
2018-12-15T15:58:36.488Z,96046.73
2018-12-15T16:01:06.456Z,96050.69
2018-12-15T16:03:36.680Z,96051.14
2018-12-15T16:06:06.584Z,96045.77
2018-12-15T16:08:36.787Z,96043.66
2018-12-15T16:11:06.978Z,96052.81
2018-12-15T16:13:36.851Z,96048.19
2018-12-15T16:16:44.347Z,96044.87
2018-12-15T16:19:14.229Z,96048.59
2018-12-15T16:21:44.114Z,96046.14
2018-12-15T16:24:14.069Z,96047.44
2018-12-15T16:26:43.982Z,96036.67
2018-12-15T16:29:14.424Z,96037.55
2018-12-15T16:31:44.255Z,96031.55
2018-12-15T16:34:14.568Z,96038.06
2018-12-15T16:36:44.582Z,96035.13
2018-12-15T16:39:14.477Z,96036.55
2018-12-15T16:41:45.069Z,96030.33
2018-12-15T16:44:15.193Z,96026.17
2018-12-15T16:46:45.035Z,96024.56
2018-12-15T16:49:14.909Z,96021.98
2018-12-15T16:51:44.891Z,96019.89
2018-12-15T16:54:14.802Z,96014.64
2018-12-15T16:56:44.703Z,96013.03
2018-12-15T16:59:14.883Z,96014.89
2018-12-15T17:01:44.928Z,96016.28
2018-12-15T17:04:14.921Z,96015.00
2018-12-15T17:06:44.938Z,96013.66
2018-12-15T17:09:16.462Z,96020.39
2018-12-15T17:11:46.663Z,96022.58
2018-12-15T17:14:17.762Z,96016.11
2018-12-15T17:16:48.276Z,96013.16
2018-12-15T17:19:19.108Z,96015.28
2018-12-15T17:21:49.054Z,96001.70
2018-12-15T17:24:19.019Z,96014.05
2018-12-15T17:26:49.481Z,96010.20
2018-12-15T17:29:19.398Z,96009.00
2018-12-15T17:31:50.185Z,96008.88
2018-12-15T17:34:20.215Z,96004.64
2018-12-15T17:36:50.089Z,96003.41
2018-12-15T17:39:20.669Z,95997.62
2018-12-15T17:41:50.546Z,95997.73
2018-12-15T17:44:20.994Z,95990.55
2018-12-15T17:46:51.557Z,95993.67
2018-12-15T17:49:21.572Z,95989.52
2018-12-15T17:51:51.740Z,95982.30
2018-12-15T17:54:22.131Z,95982.69
2018-12-15T17:56:52.364Z,95983.66
2018-12-15T17:59:23.055Z,95980.18
2018-12-15T18:01:53.438Z,95978.78
2018-12-15T18:04:23.469Z,95979.30
2018-12-15T18:06:53.516Z,95966.55
2018-12-15T18:09:23.661Z,95960.27
2018-12-15T18:11:54.067Z,95960.66
2018-12-15T18:14:24.843Z,95963.30
2018-12-15T18:16:54.681Z,95963.36
2018-12-15T18:19:24.965Z,95952.14
2018-12-15T18:21:54.816Z,95952.22
2018-12-15T18:24:24.946Z,95951.77
2018-12-15T18:26:54.949Z,95948.06
2018-12-15T18:29:24.908Z,95948.89
2018-12-15T18:31:55.448Z,95945.61
2018-12-15T18:34:25.610Z,95947.98
2018-12-15T18:36:55.538Z,95942.88
2018-12-15T18:39:25.641Z,95942.60
2018-12-15T18:41:55.955Z,95944.72
2018-12-15T18:44:26.315Z,95945.50
2018-12-15T18:46:57.252Z,95945.62
2018-12-15T18:49:28.188Z,95942.55
2018-12-15T18:51:58.230Z,95944.70
2018-12-15T18:54:28.443Z,95944.13
2018-12-15T18:56:59.189Z,95939.07
2018-12-15T18:59:30.066Z,95938.13
2018-12-15T19:02:00.081Z,95930.45
2018-12-15T19:04:30.153Z,95932.48
2018-12-15T19:07:00.194Z,95926.52
2018-12-15T19:09:30.148Z,95927.53
2018-12-15T19:12:00.288Z,95921.27
2018-12-15T19:14:31.269Z,95919.48
2018-12-15T19:17:01.339Z,95907.91
2018-12-15T19:19:31.855Z,95910.09
2018-12-15T19:22:02.337Z,95905.35
2018-12-15T19:24:32.359Z,95904.68
2018-12-15T19:27:02.332Z,95911.23
2018-12-15T19:29:32.836Z,95915.76
2018-12-15T19:32:02.962Z,95904.11
2018-12-15T19:34:33.031Z,95908.26
2018-12-15T19:37:03.158Z,95905.48
2018-12-15T19:39:33.874Z,95904.75
2018-12-15T19:42:03.889Z,95897.53
2018-12-15T19:44:34.085Z,95883.61
2018-12-15T19:47:04.089Z,95879.39
2018-12-15T19:49:34.712Z,95880.70
2018-12-15T19:52:04.799Z,95876.93
2018-12-15T19:54:35.337Z,95869.33
2018-12-15T19:57:05.310Z,95856.02
2018-12-15T19:59:35.346Z,95852.56
2018-12-15T20:02:05.558Z,95862.84
2018-12-15T20:04:35.484Z,95859.03
2018-12-15T20:07:06.253Z,95848.28
2018-12-15T20:09:36.224Z,95843.15
2018-12-15T20:12:07.403Z,95840.97
2018-12-15T20:14:38.560Z,95831.39
2018-12-15T20:17:08.975Z,95828.05
2018-12-15T20:19:39.286Z,95820.17
2018-12-15T20:22:09.752Z,95815.77
2018-12-15T20:24:41.078Z,95803.11
2018-12-15T20:27:11.708Z,95798.00
2018-12-15T20:29:41.842Z,95785.60
2018-12-15T20:32:11.824Z,95786.87
2018-12-15T20:34:42.979Z,95784.70
2018-12-15T20:37:14.242Z,95779.08
2018-12-15T20:39:48.326Z,95774.66
2018-12-15T20:42:19.045Z,95763.17
2018-12-15T20:44:50.119Z,95763.55
2018-12-15T20:47:20.935Z,95760.98
2018-12-15T20:49:51.424Z,95762.19
2018-12-15T20:52:21.575Z,95767.31
2018-12-15T20:54:51.983Z,95763.87
2018-12-15T20:57:22.135Z,95760.53
2018-12-15T20:59:52.244Z,95754.47
2018-12-15T21:02:22.978Z,95755.61
2018-12-15T21:04:54.588Z,95747.41
2018-12-15T21:07:25.361Z,95742.75
2018-12-15T21:09:56.497Z,95742.85
2018-12-15T21:12:27.471Z,95734.50
2018-12-15T21:15:02.351Z,95733.61
2018-12-15T21:17:34.045Z,95722.58
2018-12-15T21:20:05.085Z,95722.25
2018-12-15T21:22:35.758Z,95721.97
2018-12-15T21:25:07.204Z,95727.09
2018-12-15T21:27:37.126Z,95722.95
2018-12-15T21:30:08.860Z,95719.13
2018-12-15T21:32:39.100Z,95717.47
2018-12-15T21:35:09.522Z,95723.00
2018-12-15T21:37:39.410Z,95721.30
2018-12-15T21:40:09.667Z,95728.05
2018-12-15T21:42:39.641Z,95718.28
2018-12-15T21:45:10.093Z,95718.75
2018-12-15T21:47:40.004Z,95713.92
2018-12-15T21:50:11.883Z,95713.69
2018-12-15T21:52:41.841Z,95707.16
2018-12-15T21:55:12.381Z,95709.27
2018-12-15T21:57:42.432Z,95698.59
2018-12-15T22:00:12.681Z,95706.80
2018-12-15T22:02:42.613Z,95699.52
2018-12-15T22:05:12.771Z,95702.44
2018-12-15T22:07:42.787Z,95699.52
2018-12-15T22:10:13.148Z,95694.02
2018-12-15T22:12:43.055Z,95694.34
2018-12-15T22:15:13.025Z,95685.79
2018-12-15T22:17:43.107Z,95689.55
2018-12-15T22:20:13.411Z,95681.89
2018-12-15T22:22:43.641Z,95680.59
2018-12-15T22:25:13.590Z,95680.02
2018-12-15T22:27:43.516Z,95668.98
2018-12-15T22:30:13.481Z,95656.66
2018-12-15T22:32:43.510Z,95655.39
2018-12-15T22:35:13.723Z,95657.13
2018-12-15T22:37:43.723Z,95652.38
2018-12-15T22:40:13.802Z,95642.78
2018-12-15T22:42:43.874Z,95642.64
2018-12-15T22:45:14.371Z,95635.97
2018-12-15T22:47:44.344Z,95633.92
2018-12-15T22:50:14.427Z,95633.47
2018-12-15T22:52:44.887Z,95631.84
2018-12-15T22:55:15.013Z,95623.66
2018-12-15T22:57:44.989Z,95619.83
2018-12-15T23:00:21.595Z,95620.57
2018-12-15T23:02:51.632Z,95625.55
2018-12-15T23:05:21.544Z,95618.70
2018-12-15T23:07:51.933Z,95619.98
2018-12-15T23:10:22.687Z,95616.17
2018-12-15T23:12:52.851Z,95624.58
2018-12-15T23:15:22.894Z,95618.05
2018-12-15T23:17:52.896Z,95622.31
2018-12-15T23:20:23.116Z,95619.26
2018-12-15T23:22:53.014Z,95612.16
2018-12-15T23:25:25.605Z,95605.63
2018-12-15T23:27:55.653Z,95602.86
2018-12-15T23:30:25.793Z,95592.27
2018-12-15T23:32:55.720Z,95583.03
2018-12-15T23:35:25.974Z,95589.56
2018-12-15T23:37:55.882Z,95567.89
2018-12-15T23:40:25.877Z,95558.84
2018-12-15T23:42:56.166Z,95553.73
2018-12-15T23:45:26.035Z,95544.90
2018-12-15T23:47:55.946Z,95547.05
2018-12-15T23:50:25.916Z,95546.16
2018-12-15T23:52:56.400Z,95544.14
2018-12-15T23:55:26.313Z,95545.09
2018-12-15T23:57:56.300Z,95543.89
